sensor_id;sensor_type;location;lat;lon;timestamp;P1;P2;P0
62599;PMS7003;48671;48.922;2.346;2023-05-27T00:01:30;92.75;82.00;40.75
62599;PMS7003;48671;48.922;2.346;2023-05-27T00:03:55;107.25;96.00;51.25
62599;PMS7003;48671;48.922;2.346;2023-05-27T00:06:20;93.25;80.00;41.00
62599;PMS7003;48671;48.922;2.346;2023-05-27T00:08:46;92.75;81.00;43.25
62599;PMS7003;48671;48.922;2.346;2023-05-27T00:11:11;92.00;80.25;41.25
62599;PMS7003;48671;48.922;2.346;2023-05-27T00:13:36;91.00;79.25;40.75
62599;PMS7003;48671;48.922;2.346;2023-05-27T00:16:02;93.25;82.25;39.75
62599;PMS7003;48671;48.922;2.346;2023-05-27T00:18:27;97.75;82.50;39.75
62599;PMS7003;48671;48.922;2.346;2023-05-27T00:20:52;93.75;83.50;40.75
62599;PMS7003;48671;48.922;2.346;2023-05-27T00:23:18;97.75;85.50;45.75
62599;PMS7003;48671;48.922;2.346;2023-05-27T00:25:43;111.25;98.75;57.25
62599;PMS7003;48671;48.922;2.346;2023-05-27T00:28:09;91.50;79.25;38.75
62599;PMS7003;48671;48.922;2.346;2023-05-27T00:30:34;98.75;84.00;43.00
62599;PMS7003;48671;48.922;2.346;2023-05-27T00:32:59;93.25;82.25;41.25
62599;PMS7003;48671;48.922;2.346;2023-05-27T00:35:25;92.50;80.25;41.25
62599;PMS7003;48671;48.922;2.346;2023-05-27T00:37:50;92.50;81.00;41.75
62599;PMS7003;48671;48.922;2.346;2023-05-27T00:40:16;89.75;78.50;38.75
62599;PMS7003;48671;48.922;2.346;2023-05-27T00:42:46;96.00;83.20;42.00
62599;PMS7003;48671;48.922;2.346;2023-05-27T00:45:11;95.50;82.00;38.75
62599;PMS7003;48671;48.922;2.346;2023-05-27T00:47:37;98.25;83.50;41.00
62599;PMS7003;48671;48.922;2.346;2023-05-27T00:50:03;95.50;85.00;42.00
62599;PMS7003;48671;48.922;2.346;2023-05-27T00:52:29;96.40;85.00;40.20
62599;PMS7003;48671;48.922;2.346;2023-05-27T00:54:55;95.50;81.50;42.50
62599;PMS7003;48671;48.922;2.346;2023-05-27T00:57:21;89.00;79.50;38.00
62599;PMS7003;48671;48.922;2.346;2023-05-27T00:59:46;97.50;86.50;47.00
62599;PMS7003;48671;48.922;2.346;2023-05-27T01:02:12;87.50;76.00;36.00
62599;PMS7003;48671;48.922;2.346;2023-05-27T01:04:37;95.25;85.00;46.75
62599;PMS7003;48671;48.922;2.346;2023-05-27T01:07:08;86.00;72.50;35.25
62599;PMS7003;48671;48.922;2.346;2023-05-27T01:09:47;85.60;72.80;36.60
62599;PMS7003;48671;48.922;2.346;2023-05-27T01:12:27;95.40;80.60;43.80
62599;PMS7003;48671;48.922;2.346;2023-05-27T01:15:00;93.75;81.25;39.75
62599;PMS7003;48671;48.922;2.346;2023-05-27T01:17:30;88.75;77.25;37.75
62599;PMS7003;48671;48.922;2.346;2023-05-27T01:19:57;89.60;78.60;40.00
62599;PMS7003;48671;48.922;2.346;2023-05-27T01:22:30;93.40;79.80;43.40
62599;PMS7003;48671;48.922;2.346;2023-05-27T01:24:56;93.75;81.25;42.00
62599;PMS7003;48671;48.922;2.346;2023-05-27T01:27:22;91.75;80.00;40.25
62599;PMS7003;48671;48.922;2.346;2023-05-27T01:29:50;103.20;91.20;51.40
62599;PMS7003;48671;48.922;2.346;2023-05-27T01:32:18;102.75;81.50;41.00
62599;PMS7003;48671;48.922;2.346;2023-05-27T01:35:01;90.25;79.00;43.00
62599;PMS7003;48671;48.922;2.346;2023-05-27T01:37:33;92.20;81.00;41.20
62599;PMS7003;48671;48.922;2.346;2023-05-27T01:40:03;90.00;77.80;43.80
62599;PMS7003;48671;48.922;2.346;2023-05-27T01:42:31;96.00;82.80;49.40
62599;PMS7003;48671;48.922;2.346;2023-05-27T01:44:59;89.00;75.75;43.00
62599;PMS7003;48671;48.922;2.346;2023-05-27T01:47:25;97.40;84.80;47.60
62599;PMS7003;48671;48.922;2.346;2023-05-27T01:49:52;93.20;79.80;42.40
62599;PMS7003;48671;48.922;2.346;2023-05-27T01:52:17;101.50;88.50;59.00
62599;PMS7003;48671;48.922;2.346;2023-05-27T01:54:43;91.75;79.25;44.25
62599;PMS7003;48671;48.922;2.346;2023-05-27T01:57:08;91.75;80.00;41.75
62599;PMS7003;48671;48.922;2.346;2023-05-27T01:59:33;95.75;83.25;44.00
62599;PMS7003;48671;48.922;2.346;2023-05-27T02:01:59;91.00;79.50;42.50
62599;PMS7003;48671;48.922;2.346;2023-05-27T02:04:24;91.50;78.25;42.25
62599;PMS7003;48671;48.922;2.346;2023-05-27T02:06:50;92.25;79.50;42.75
62599;PMS7003;48671;48.922;2.346;2023-05-27T02:09:16;91.60;80.80;42.00
62599;PMS7003;48671;48.922;2.346;2023-05-27T02:11:41;88.00;74.50;40.25
62599;PMS7003;48671;48.922;2.346;2023-05-27T02:14:07;86.00;70.25;38.50
62599;PMS7003;48671;48.922;2.346;2023-05-27T02:16:32;87.25;73.25;43.50
62599;PMS7003;48671;48.922;2.346;2023-05-27T02:18:59;90.80;78.20;42.40
62599;PMS7003;48671;48.922;2.346;2023-05-27T02:21:26;92.60;78.60;42.80
62599;PMS7003;48671;48.922;2.346;2023-05-27T02:23:51;89.00;77.25;40.25
62599;PMS7003;48671;48.922;2.346;2023-05-27T02:26:16;91.25;79.50;40.75
62599;PMS7003;48671;48.922;2.346;2023-05-27T02:28:42;93.50;80.00;43.00
62599;PMS7003;48671;48.922;2.346;2023-05-27T02:31:07;88.00;74.50;38.25
62599;PMS7003;48671;48.922;2.346;2023-05-27T02:33:33;89.40;76.60;42.00
62599;PMS7003;48671;48.922;2.346;2023-05-27T02:35:59;91.25;78.50;41.25
62599;PMS7003;48671;48.922;2.346;2023-05-27T02:38:24;93.25;80.75;40.00
62599;PMS7003;48671;48.922;2.346;2023-05-27T02:40:50;113.50;101.00;62.00
62599;PMS7003;48671;48.922;2.346;2023-05-27T02:43:15;103.50;89.25;50.25
62599;PMS7003;48671;48.922;2.346;2023-05-27T02:45:41;97.00;84.00;46.00
62599;PMS7003;48671;48.922;2.346;2023-05-27T02:48:07;100.00;87.00;50.00
62599;PMS7003;48671;48.922;2.346;2023-05-27T02:50:32;97.00;84.50;45.75
62599;PMS7003;48671;48.922;2.346;2023-05-27T02:52:57;98.75;83.75;43.75
62599;PMS7003;48671;48.922;2.346;2023-05-27T02:55:23;94.50;83.25;42.25
62599;PMS7003;48671;48.922;2.346;2023-05-27T02:57:48;99.00;87.50;48.25
62599;PMS7003;48671;48.922;2.346;2023-05-27T03:00:13;97.25;84.25;47.75
62599;PMS7003;48671;48.922;2.346;2023-05-27T03:02:39;98.75;87.00;47.25
62599;PMS7003;48671;48.922;2.346;2023-05-27T03:05:05;97.75;86.00;47.25
62599;PMS7003;48671;48.922;2.346;2023-05-27T03:07:30;96.50;84.75;44.00
62599;PMS7003;48671;48.922;2.346;2023-05-27T03:09:56;98.00;86.50;49.50
62599;PMS7003;48671;48.922;2.346;2023-05-27T03:12:21;92.50;79.75;45.50
62599;PMS7003;48671;48.922;2.346;2023-05-27T03:14:47;99.25;87.25;46.75
62599;PMS7003;48671;48.922;2.346;2023-05-27T03:17:12;92.50;81.25;44.50
62599;PMS7003;48671;48.922;2.346;2023-05-27T03:19:38;97.75;84.25;46.00
62599;PMS7003;48671;48.922;2.346;2023-05-27T03:22:03;96.25;83.50;45.25
62599;PMS7003;48671;48.922;2.346;2023-05-27T03:24:28;91.50;79.75;45.25
62599;PMS7003;48671;48.922;2.346;2023-05-27T03:26:54;91.67;80.33;44.67
62599;PMS7003;48671;48.922;2.346;2023-05-27T03:29:19;97.00;83.50;45.75
62599;PMS7003;48671;48.922;2.346;2023-05-27T03:31:45;102.00;87.00;45.25
62599;PMS7003;48671;48.922;2.346;2023-05-27T03:34:10;90.75;79.00;42.50
62599;PMS7003;48671;48.922;2.346;2023-05-27T03:36:35;91.50;80.00;43.50
62599;PMS7003;48671;48.922;2.346;2023-05-27T03:39:02;98.75;85.75;51.50
62599;PMS7003;48671;48.922;2.346;2023-05-27T03:41:29;98.00;83.50;46.25
62599;PMS7003;48671;48.922;2.346;2023-05-27T03:43:57;96.50;83.00;45.25
62599;PMS7003;48671;48.922;2.346;2023-05-27T03:46:23;99.75;83.50;48.25
62599;PMS7003;48671;48.922;2.346;2023-05-27T03:48:48;95.75;83.00;49.00
62599;PMS7003;48671;48.922;2.346;2023-05-27T03:51:13;92.50;79.75;48.25
62599;PMS7003;48671;48.922;2.346;2023-05-27T03:53:39;100.00;84.33;51.33
62599;PMS7003;48671;48.922;2.346;2023-05-27T03:56:04;90.75;76.75;42.75
62599;PMS7003;48671;48.922;2.346;2023-05-27T03:58:30;86.25;68.00;39.00
62599;PMS7003;48671;48.922;2.346;2023-05-27T04:00:55;91.25;78.00;50.50
62599;PMS7003;48671;48.922;2.346;2023-05-27T04:03:21;111.00;97.50;71.75
62599;PMS7003;48671;48.922;2.346;2023-05-27T04:05:46;87.75;71.25;46.25
62599;PMS7003;48671;48.922;2.346;2023-05-27T04:08:11;86.33;70.33;46.67
62599;PMS7003;48671;48.922;2.346;2023-05-27T04:10:38;86.67;66.33;42.67
62599;PMS7003;48671;48.922;2.346;2023-05-27T04:13:03;86.33;70.33;47.33
62599;PMS7003;48671;48.922;2.346;2023-05-27T04:15:28;82.50;61.75;38.25
62599;PMS7003;48671;48.922;2.346;2023-05-27T04:17:54;85.25;67.25;43.50
62599;PMS7003;48671;48.922;2.346;2023-05-27T04:20:19;88.00;71.50;46.25
62599;PMS7003;48671;48.922;2.346;2023-05-27T04:22:45;88.25;73.25;49.75
62599;PMS7003;48671;48.922;2.346;2023-05-27T04:25:10;86.25;68.25;47.50
62599;PMS7003;48671;48.922;2.346;2023-05-27T04:27:35;84.00;64.25;38.75
62599;PMS7003;48671;48.922;2.346;2023-05-27T04:30:04;86.00;65.50;39.50
62599;PMS7003;48671;48.922;2.346;2023-05-27T04:32:30;84.50;65.00;40.00
62599;PMS7003;48671;48.922;2.346;2023-05-27T04:34:58;79.00;56.33;35.00
62599;PMS7003;48671;48.922;2.346;2023-05-27T04:37:24;87.33;70.67;48.00
62599;PMS7003;48671;48.922;2.346;2023-05-27T04:39:53;86.25;66.50;44.50
62599;PMS7003;48671;48.922;2.346;2023-05-27T04:42:21;79.00;58.00;36.00
62599;PMS7003;48671;48.922;2.346;2023-05-27T04:44:47;82.80;64.00;38.60
62599;PMS7003;48671;48.922;2.346;2023-05-27T04:47:13;83.00;63.25;43.25
62599;PMS7003;48671;48.922;2.346;2023-05-27T04:49:39;85.50;68.50;45.50
62599;PMS7003;48671;48.922;2.346;2023-05-27T04:52:04;81.25;60.25;39.25
62599;PMS7003;48671;48.922;2.346;2023-05-27T04:54:32;86.33;68.00;44.00
62599;PMS7003;48671;48.922;2.346;2023-05-27T04:56:57;83.75;64.50;40.25
62599;PMS7003;48671;48.922;2.346;2023-05-27T04:59:23;85.00;64.75;39.00
62599;PMS7003;48671;48.922;2.346;2023-05-27T05:01:54;88.00;67.75;39.75
62599;PMS7003;48671;48.922;2.346;2023-05-27T05:04:42;83.25;64.25;39.00
62599;PMS7003;48671;48.922;2.346;2023-05-27T05:07:07;83.50;64.75;39.50
62599;PMS7003;48671;48.922;2.346;2023-05-27T05:09:33;86.25;66.50;38.25
62599;PMS7003;48671;48.922;2.346;2023-05-27T05:11:58;86.25;67.50;39.25
62599;PMS7003;48671;48.922;2.346;2023-05-27T05:14:23;86.50;66.50;38.50
62599;PMS7003;48671;48.922;2.346;2023-05-27T05:16:49;93.25;76.00;42.75
62599;PMS7003;48671;48.922;2.346;2023-05-27T05:19:14;90.50;76.25;43.75
62599;PMS7003;48671;48.922;2.346;2023-05-27T05:21:39;86.00;69.00;39.00
62599;PMS7003;48671;48.922;2.346;2023-05-27T05:24:05;86.00;68.25;39.00
62599;PMS7003;48671;48.922;2.346;2023-05-27T05:26:30;87.00;70.25;38.50
62599;PMS7003;48671;48.922;2.346;2023-05-27T05:28:56;84.50;68.25;38.00
62599;PMS7003;48671;48.922;2.346;2023-05-27T05:31:21;83.00;64.25;35.25
62599;PMS7003;48671;48.922;2.346;2023-05-27T05:33:46;87.50;74.00;39.00
62599;PMS7003;48671;48.922;2.346;2023-05-27T05:36:12;85.50;69.25;37.00
62599;PMS7003;48671;48.922;2.346;2023-05-27T05:38:37;87.50;72.25;37.75
62599;PMS7003;48671;48.922;2.346;2023-05-27T05:41:03;86.25;70.25;36.00
62599;PMS7003;48671;48.922;2.346;2023-05-27T05:43:28;85.50;71.50;38.50
62599;PMS7003;48671;48.922;2.346;2023-05-27T05:45:54;87.25;74.00;38.00
62599;PMS7003;48671;48.922;2.346;2023-05-27T05:48:19;84.75;69.00;34.75
62599;PMS7003;48671;48.922;2.346;2023-05-27T05:50:45;85.50;70.50;37.00
62599;PMS7003;48671;48.922;2.346;2023-05-27T05:53:10;86.50;69.25;39.75
62599;PMS7003;48671;48.922;2.346;2023-05-27T05:55:36;85.50;70.50;36.25
62599;PMS7003;48671;48.922;2.346;2023-05-27T05:58:02;85.25;68.00;35.75
62599;PMS7003;48671;48.922;2.346;2023-05-27T06:00:27;88.50;75.00;37.75
62599;PMS7003;48671;48.922;2.346;2023-05-27T06:02:53;88.00;75.50;38.25
62599;PMS7003;48671;48.922;2.346;2023-05-27T06:05:18;86.75;72.00;35.50
62599;PMS7003;48671;48.922;2.346;2023-05-27T06:07:43;88.50;76.25;38.25
62599;PMS7003;48671;48.922;2.346;2023-05-27T06:10:10;88.25;75.75;37.25
62599;PMS7003;48671;48.922;2.346;2023-05-27T06:12:35;85.25;68.75;36.25
62599;PMS7003;48671;48.922;2.346;2023-05-27T06:15:01;86.75;72.00;36.25
62599;PMS7003;48671;48.922;2.346;2023-05-27T06:17:26;89.50;75.50;36.25
62599;PMS7003;48671;48.922;2.346;2023-05-27T06:19:52;86.00;71.00;34.00
62599;PMS7003;48671;48.922;2.346;2023-05-27T06:22:17;86.50;70.75;35.00
62599;PMS7003;48671;48.922;2.346;2023-05-27T06:24:42;86.25;72.75;35.25
62599;PMS7003;48671;48.922;2.346;2023-05-27T06:27:08;89.25;77.25;37.50
62599;PMS7003;48671;48.922;2.346;2023-05-27T06:29:33;97.75;84.25;45.50
62599;PMS7003;48671;48.922;2.346;2023-05-27T06:31:58;92.50;80.75;39.75
62599;PMS7003;48671;48.922;2.346;2023-05-27T06:34:23;82.25;64.25;32.00
62599;PMS7003;48671;48.922;2.346;2023-05-27T06:36:49;99.25;85.00;43.25
62599;PMS7003;48671;48.922;2.346;2023-05-27T06:39:15;88.75;76.25;37.00
62599;PMS7003;48671;48.922;2.346;2023-05-27T06:41:40;88.00;75.50;37.50
62599;PMS7003;48671;48.922;2.346;2023-05-27T06:44:06;82.50;66.25;34.25
62599;PMS7003;48671;48.922;2.346;2023-05-27T06:46:31;86.00;70.25;35.75
62599;PMS7003;48671;48.922;2.346;2023-05-27T06:48:57;90.00;77.75;40.25
62599;PMS7003;48671;48.922;2.346;2023-05-27T06:51:22;87.75;71.00;36.25
62599;PMS7003;48671;48.922;2.346;2023-05-27T06:53:48;92.25;78.75;40.00
62599;PMS7003;48671;48.922;2.346;2023-05-27T06:56:13;85.50;69.00;36.75
62599;PMS7003;48671;48.922;2.346;2023-05-27T06:58:39;90.00;75.75;36.25
62599;PMS7003;48671;48.922;2.346;2023-05-27T07:01:04;90.00;78.25;36.00
62599;PMS7003;48671;48.922;2.346;2023-05-27T07:03:29;90.00;76.25;37.50
62599;PMS7003;48671;48.922;2.346;2023-05-27T07:05:55;86.50;73.50;33.50
62599;PMS7003;48671;48.922;2.346;2023-05-27T07:08:20;100.75;78.75;36.00
62599;PMS7003;48671;48.922;2.346;2023-05-27T07:10:46;105.50;88.75;42.75
62599;PMS7003;48671;48.922;2.346;2023-05-27T07:13:11;104.75;87.00;42.50
62599;PMS7003;48671;48.922;2.346;2023-05-27T07:15:38;97.20;84.60;41.60
62599;PMS7003;48671;48.922;2.346;2023-05-27T07:18:04;86.50;76.25;37.25
62599;PMS7003;48671;48.922;2.346;2023-05-27T07:20:30;97.00;85.50;41.50
62599;PMS7003;48671;48.922;2.346;2023-05-27T07:22:57;116.40;94.60;45.40
62599;PMS7003;48671;48.922;2.346;2023-05-27T07:25:22;102.50;92.00;44.25
62599;PMS7003;48671;48.922;2.346;2023-05-27T07:27:48;91.50;77.75;34.00
62599;PMS7003;48671;48.922;2.346;2023-05-27T07:30:13;106.50;93.25;50.00
62599;PMS7003;48671;48.922;2.346;2023-05-27T07:32:38;107.75;95.00;50.75
62599;PMS7003;48671;48.922;2.346;2023-05-27T07:35:04;101.75;90.00;43.75
62599;PMS7003;48671;48.922;2.346;2023-05-27T07:37:30;104.25;92.00;43.75
62599;PMS7003;48671;48.922;2.346;2023-05-27T07:39:55;109.25;94.50;43.75
62599;PMS7003;48671;48.922;2.346;2023-05-27T07:42:20;108.50;95.25;46.50
62599;PMS7003;48671;48.922;2.346;2023-05-27T07:44:46;102.25;89.25;43.00
62599;PMS7003;48671;48.922;2.346;2023-05-27T07:47:11;112.00;99.75;53.00
62599;PMS7003;48671;48.922;2.346;2023-05-27T07:49:36;91.25;76.50;35.25
62599;PMS7003;48671;48.922;2.346;2023-05-27T07:52:02;106.25;95.25;48.25
62599;PMS7003;48671;48.922;2.346;2023-05-27T07:54:27;107.25;96.00;47.75
62599;PMS7003;48671;48.922;2.346;2023-05-27T07:56:53;107.00;94.25;47.25
62599;PMS7003;48671;48.922;2.346;2023-05-27T07:59:18;106.25;93.00;47.00
62599;PMS7003;48671;48.922;2.346;2023-05-27T08:01:43;108.25;94.50;45.25
62599;PMS7003;48671;48.922;2.346;2023-05-27T08:04:09;108.50;94.50;46.25
62599;PMS7003;48671;48.922;2.346;2023-05-27T08:06:35;100.50;88.00;44.00
62599;PMS7003;48671;48.922;2.346;2023-05-27T08:09:00;108.25;96.25;46.25
62599;PMS7003;48671;48.922;2.346;2023-05-27T08:11:26;110.25;97.75;46.75
62599;PMS7003;48671;48.922;2.346;2023-05-27T08:13:52;105.75;94.00;45.00
62599;PMS7003;48671;48.922;2.346;2023-05-27T08:16:17;89.25;79.00;33.50
62599;PMS7003;48671;48.922;2.346;2023-05-27T08:18:42;97.50;84.75;35.75
62599;PMS7003;48671;48.922;2.346;2023-05-27T08:21:08;109.75;97.50;51.00
62599;PMS7003;48671;48.922;2.346;2023-05-27T08:23:33;106.50;95.00;46.50
62599;PMS7003;48671;48.922;2.346;2023-05-27T08:25:58;103.25;92.50;44.75
62599;PMS7003;48671;48.922;2.346;2023-05-27T08:28:25;110.20;98.20;48.20
62599;PMS7003;48671;48.922;2.346;2023-05-27T08:30:50;112.25;99.50;49.50
62599;PMS7003;48671;48.922;2.346;2023-05-27T08:33:16;102.75;91.25;38.50
62599;PMS7003;48671;48.922;2.346;2023-05-27T08:35:41;106.00;92.75;42.75
62599;PMS7003;48671;48.922;2.346;2023-05-27T08:38:07;110.50;98.50;49.50
62599;PMS7003;48671;48.922;2.346;2023-05-27T08:40:32;107.50;98.00;49.25
62599;PMS7003;48671;48.922;2.346;2023-05-27T08:42:57;109.50;95.25;46.75
62599;PMS7003;48671;48.922;2.346;2023-05-27T08:45:23;109.50;95.00;47.50
62599;PMS7003;48671;48.922;2.346;2023-05-27T08:47:48;110.25;94.75;45.75
62599;PMS7003;48671;48.922;2.346;2023-05-27T08:50:14;104.40;91.60;42.20
62599;PMS7003;48671;48.922;2.346;2023-05-27T08:52:46;98.25;88.00;39.75
62599;PMS7003;48671;48.922;2.346;2023-05-27T08:55:14;106.40;92.60;43.80
62599;PMS7003;48671;48.922;2.346;2023-05-27T08:57:43;99.00;86.20;35.80
62599;PMS7003;48671;48.922;2.346;2023-05-27T09:00:11;103.60;89.80;41.80
62599;PMS7003;48671;48.922;2.346;2023-05-27T09:02:38;99.00;85.20;38.60
62599;PMS7003;48671;48.922;2.346;2023-05-27T09:05:04;106.00;93.60;44.00
62599;PMS7003;48671;48.922;2.346;2023-05-27T09:07:31;101.00;90.00;43.60
62599;PMS7003;48671;48.922;2.346;2023-05-27T09:09:56;108.75;92.50;39.75
62599;PMS7003;48671;48.922;2.346;2023-05-27T09:12:23;93.60;82.20;34.20
62599;PMS7003;48671;48.922;2.346;2023-05-27T09:14:50;92.60;79.60;35.20
62599;PMS7003;48671;48.922;2.346;2023-05-27T09:17:15;90.00;79.00;34.25
62599;PMS7003;48671;48.922;2.346;2023-05-27T09:19:41;95.25;82.25;36.25
62599;PMS7003;48671;48.922;2.346;2023-05-27T09:22:06;99.00;85.25;38.50
62599;PMS7003;48671;48.922;2.346;2023-05-27T09:24:31;94.50;83.50;40.50
62599;PMS7003;48671;48.922;2.346;2023-05-27T09:26:57;96.00;83.00;39.25
62599;PMS7003;48671;48.922;2.346;2023-05-27T09:29:25;97.00;84.75;39.75
62599;PMS7003;48671;48.922;2.346;2023-05-27T09:31:54;93.60;81.40;39.80
62599;PMS7003;48671;48.922;2.346;2023-05-27T09:34:22;93.40;77.60;37.40
62599;PMS7003;48671;48.922;2.346;2023-05-27T09:36:49;91.25;79.50;43.00
62599;PMS7003;48671;48.922;2.346;2023-05-27T09:39:17;91.00;78.20;39.20
62599;PMS7003;48671;48.922;2.346;2023-05-27T09:41:50;90.80;78.80;41.60
62599;PMS7003;48671;48.922;2.346;2023-05-27T09:44:18;83.40;72.60;45.60
62599;PMS7003;48671;48.922;2.346;2023-05-27T09:46:44;86.25;73.50;40.00
62599;PMS7003;48671;48.922;2.346;2023-05-27T09:49:10;89.80;78.60;45.00
62599;PMS7003;48671;48.922;2.346;2023-05-27T09:51:38;86.20;75.40;39.80
62599;PMS7003;48671;48.922;2.346;2023-05-27T09:54:06;91.60;80.40;46.60
62599;PMS7003;48671;48.922;2.346;2023-05-27T09:56:34;90.00;77.60;45.80
62599;PMS7003;48671;48.922;2.346;2023-05-27T09:58:59;90.50;78.75;48.00
62599;PMS7003;48671;48.922;2.346;2023-05-27T10:01:26;85.80;73.00;44.60
62599;PMS7003;48671;48.922;2.346;2023-05-27T10:03:55;83.20;72.00;46.80
62599;PMS7003;48671;48.922;2.346;2023-05-27T10:06:23;86.80;76.40;49.80
62599;PMS7003;48671;48.922;2.346;2023-05-27T10:08:51;89.20;76.80;53.40
62599;PMS7003;48671;48.922;2.346;2023-05-27T10:11:17;86.20;72.20;50.20
62599;PMS7003;48671;48.922;2.346;2023-05-27T10:13:43;85.50;73.00;50.50
62599;PMS7003;48671;48.922;2.346;2023-05-27T10:16:17;85.60;73.60;52.80
62599;PMS7003;48671;48.922;2.346;2023-05-27T10:18:44;87.40;74.60;56.60
62599;PMS7003;48671;48.922;2.346;2023-05-27T10:21:09;88.00;76.50;58.00
62599;PMS7003;48671;48.922;2.346;2023-05-27T10:24:19;80.40;64.60;44.20
62599;PMS7003;48671;48.922;2.346;2023-05-27T10:26:42;97.80;81.20;61.20
62599;PMS7003;48671;48.922;2.346;2023-05-27T10:29:10;96.00;82.00;60.60
62599;PMS7003;48671;48.922;2.346;2023-05-27T10:31:36;95.00;78.40;59.60
62599;PMS7003;48671;48.922;2.346;2023-05-27T10:34:09;88.80;74.00;55.40
62599;PMS7003;48671;48.922;2.346;2023-05-27T10:36:34;102.00;81.50;59.00
62599;PMS7003;48671;48.922;2.346;2023-05-27T10:41:43;87.40;76.20;56.40
62599;PMS7003;48671;48.922;2.346;2023-05-27T10:44:14;93.60;79.20;55.60
62599;PMS7003;48671;48.922;2.346;2023-05-27T10:46:58;90.60;73.20;57.20
62599;PMS7003;48671;48.922;2.346;2023-05-27T10:49:25;88.80;77.80;60.40
62599;PMS7003;48671;48.922;2.346;2023-05-27T10:52:00;78.40;73.40;53.80
62599;PMS7003;48671;48.922;2.346;2023-05-27T10:54:33;77.40;73.40;56.00
62599;PMS7003;48671;48.922;2.346;2023-05-27T10:57:00;76.60;70.20;53.60
62599;PMS7003;48671;48.922;2.346;2023-05-27T10:59:28;89.80;76.20;59.60
62599;PMS7003;48671;48.922;2.346;2023-05-27T11:02:22;88.20;78.20;55.80
62599;PMS7003;48671;48.922;2.346;2023-05-27T11:04:48;79.50;78.00;61.75
62599;PMS7003;48671;48.922;2.346;2023-05-27T11:07:20;82.40;79.00;60.20
62599;PMS7003;48671;48.922;2.346;2023-05-27T11:09:47;82.00;75.00;58.80
62599;PMS7003;48671;48.922;2.346;2023-05-27T11:12:14;87.40;81.40;62.40
62599;PMS7003;48671;48.922;2.346;2023-05-27T11:14:44;83.40;79.20;63.60
62599;PMS7003;48671;48.922;2.346;2023-05-27T11:17:14;73.20;66.40;53.00
62599;PMS7003;48671;48.922;2.346;2023-05-27T11:19:40;82.60;80.60;64.80
62599;PMS7003;48671;48.922;2.346;2023-05-27T11:22:07;72.40;65.20;54.80
62599;PMS7003;48671;48.922;2.346;2023-05-27T11:24:33;76.20;72.60;62.00
62599;PMS7003;48671;48.922;2.346;2023-05-27T11:26:58;76.50;72.50;60.25
62599;PMS7003;48671;48.922;2.346;2023-05-27T11:29:24;76.50;72.00;61.50
62599;PMS7003;48671;48.922;2.346;2023-05-27T11:31:49;77.50;73.25;64.25
62599;PMS7003;48671;48.922;2.346;2023-05-27T11:34:15;74.50;67.75;54.25
62599;PMS7003;48671;48.922;2.346;2023-05-27T11:36:45;76.60;73.00;63.60
62599;PMS7003;48671;48.922;2.346;2023-05-27T11:39:11;73.00;66.75;57.00
62599;PMS7003;48671;48.922;2.346;2023-05-27T11:41:47;73.80;68.00;61.60
62599;PMS7003;48671;48.922;2.346;2023-05-27T11:44:20;77.80;74.60;66.80
62599;PMS7003;48671;48.922;2.346;2023-05-27T11:46:47;78.00;71.80;63.00
62599;PMS7003;48671;48.922;2.346;2023-05-27T11:49:13;75.20;70.40;63.40
62599;PMS7003;48671;48.922;2.346;2023-05-27T11:51:41;70.00;61.00;54.80
62599;PMS7003;48671;48.922;2.346;2023-05-27T11:54:24;114.00;88.25;61.25
62599;PMS7003;48671;48.922;2.346;2023-05-27T11:56:51;78.20;74.60;67.40
62599;PMS7003;48671;48.922;2.346;2023-05-27T11:59:18;81.00;68.80;64.80
62599;PMS7003;48671;48.922;2.346;2023-05-27T12:01:44;77.40;73.80;65.60
62599;PMS7003;48671;48.922;2.346;2023-05-27T12:04:10;75.75;70.25;62.25
62599;PMS7003;48671;48.922;2.346;2023-05-27T12:06:36;73.50;66.50;62.50
62599;PMS7003;48671;48.922;2.346;2023-05-27T12:09:03;72.60;65.60;61.20
62599;PMS7003;48671;48.922;2.346;2023-05-27T12:11:29;79.60;79.00;74.00
62599;PMS7003;48671;48.922;2.346;2023-05-27T12:13:54;84.25;74.00;70.00
62599;PMS7003;48671;48.922;2.346;2023-05-27T12:16:20;77.50;75.00;69.00
62599;PMS7003;48671;48.922;2.346;2023-05-27T12:18:45;72.00;64.75;60.50
62599;PMS7003;48671;48.922;2.346;2023-05-27T12:21:11;68.00;57.25;47.00
62599;PMS7003;48671;48.922;2.346;2023-05-27T12:23:36;61.00;49.75;40.25
62599;PMS7003;48671;48.922;2.346;2023-05-27T12:26:02;78.50;77.25;72.00
62599;PMS7003;48671;48.922;2.346;2023-05-27T12:28:27;77.00;74.50;70.50
62599;PMS7003;48671;48.922;2.346;2023-05-27T12:30:53;74.75;69.25;64.50
62599;PMS7003;48671;48.922;2.346;2023-05-27T12:33:18;71.75;63.75;59.00
62599;PMS7003;48671;48.922;2.346;2023-05-27T12:35:43;72.75;67.00;61.50
62599;PMS7003;48671;48.922;2.346;2023-05-27T12:38:09;72.75;66.00;62.25
62599;PMS7003;48671;48.922;2.346;2023-05-27T12:40:35;75.80;71.20;66.00
62599;PMS7003;48671;48.922;2.346;2023-05-27T12:43:00;87.75;77.50;72.75
62599;PMS7003;48671;48.922;2.346;2023-05-27T12:45:28;78.20;65.40;59.60
62599;PMS7003;48671;48.922;2.346;2023-05-27T12:47:53;74.75;71.50;65.50
62599;PMS7003;48671;48.922;2.346;2023-05-27T12:50:19;71.50;62.75;56.25
62599;PMS7003;48671;48.922;2.346;2023-05-27T12:52:45;74.60;68.40;65.00
62599;PMS7003;48671;48.922;2.346;2023-05-27T12:55:15;68.40;59.00;52.80
62599;PMS7003;48671;48.922;2.346;2023-05-27T12:57:44;75.00;67.60;61.20
62599;PMS7003;48671;48.922;2.346;2023-05-27T13:00:11;76.00;73.80;66.00
62599;PMS7003;48671;48.922;2.346;2023-05-27T13:02:37;75.20;70.00;65.40
62599;PMS7003;48671;48.922;2.346;2023-05-27T13:05:03;71.25;64.00;57.75
62599;PMS7003;48671;48.922;2.346;2023-05-27T13:07:31;84.00;72.00;68.60
62599;PMS7003;48671;48.922;2.346;2023-05-27T13:09:56;76.50;73.50;68.00
62599;PMS7003;48671;48.922;2.346;2023-05-27T13:12:22;76.00;71.75;65.75
62599;PMS7003;48671;48.922;2.346;2023-05-27T13:14:47;66.75;57.00;46.25
62599;PMS7003;48671;48.922;2.346;2023-05-27T13:17:13;75.25;71.25;65.50
62599;PMS7003;48671;48.922;2.346;2023-05-27T13:19:39;74.75;71.00;64.25
62599;PMS7003;48671;48.922;2.346;2023-05-27T13:22:04;69.75;60.50;53.75
62599;PMS7003;48671;48.922;2.346;2023-05-27T13:24:30;78.00;77.75;71.00
62599;PMS7003;48671;48.922;2.346;2023-05-27T13:26:55;76.75;74.00;67.75
62599;PMS7003;48671;48.922;2.346;2023-05-27T13:29:20;74.25;69.25;63.25
62599;PMS7003;48671;48.922;2.346;2023-05-27T13:31:46;74.25;70.50;64.75
62599;PMS7003;48671;48.922;2.346;2023-05-27T13:34:11;80.75;79.00;71.25
62599;PMS7003;48671;48.922;2.346;2023-05-27T13:36:36;91.75;82.75;76.00
62599;PMS7003;48671;48.922;2.346;2023-05-27T13:39:02;76.25;72.75;68.00
62599;PMS7003;48671;48.922;2.346;2023-05-27T13:41:27;73.25;67.25;62.25
62599;PMS7003;48671;48.922;2.346;2023-05-27T13:43:52;77.50;75.25;70.50